sensor_id;sensor_type;location;lat;lon;timestamp;P1;durP1;ratioP1;P2;durP2;ratioP2
74229;SDS011;62589;12.568;99.958;2022-11-15T00:00:51;17.83;;;12.20;;
74229;SDS011;62589;12.568;99.958;2022-11-15T00:03:20;14.00;;;10.93;;
74229;SDS011;62589;12.568;99.958;2022-11-15T00:05:48;11.40;;;9.65;;
74229;SDS011;62589;12.568;99.958;2022-11-15T00:08:15;11.35;;;9.38;;
74229;SDS011;62589;12.568;99.958;2022-11-15T00:10:42;10.88;;;9.38;;
74229;SDS011;62589;12.568;99.958;2022-11-15T00:13:19;12.07;;;9.38;;
74229;SDS011;62589;12.568;99.958;2022-11-15T00:15:46;9.70;;;8.70;;
74229;SDS011;62589;12.568;99.958;2022-11-15T00:18:13;10.07;;;8.93;;
74229;SDS011;62589;12.568;99.958;2022-11-15T00:20:40;10.90;;;8.35;;
74229;SDS011;62589;12.568;99.958;2022-11-15T00:23:08;9.07;;;8.18;;
74229;SDS011;62589;12.568;99.958;2022-11-15T00:25:35;9.57;;;8.02;;
74229;SDS011;62589;12.568;99.958;2022-11-15T00:28:02;9.38;;;7.95;;
74229;SDS011;62589;12.568;99.958;2022-11-15T00:30:29;8.30;;;7.40;;
74229;SDS011;62589;12.568;99.958;2022-11-15T00:32:56;9.40;;;8.23;;
74229;SDS011;62589;12.568;99.958;2022-11-15T00:35:26;10.02;;;8.48;;
74229;SDS011;62589;12.568;99.958;2022-11-15T00:37:53;9.50;;;8.43;;
74229;SDS011;62589;12.568;99.958;2022-11-15T00:40:20;9.90;;;8.10;;
74229;SDS011;62589;12.568;99.958;2022-11-15T00:42:47;9.85;;;8.30;;
74229;SDS011;62589;12.568;99.958;2022-11-15T00:45:13;9.00;;;7.80;;
74229;SDS011;62589;12.568;99.958;2022-11-15T00:47:40;10.48;;;8.77;;
74229;SDS011;62589;12.568;99.958;2022-11-15T00:50:09;10.43;;;8.50;;
74229;SDS011;62589;12.568;99.958;2022-11-15T00:52:36;10.88;;;8.57;;
74229;SDS011;62589;12.568;99.958;2022-11-15T00:55:02;9.63;;;8.05;;
74229;SDS011;62589;12.568;99.958;2022-11-15T00:57:30;7.82;;;7.05;;
74229;SDS011;62589;12.568;99.958;2022-11-15T00:59:56;8.18;;;7.40;;
74229;SDS011;62589;12.568;99.958;2022-11-15T01:02:23;9.23;;;7.68;;
74229;SDS011;62589;12.568;99.958;2022-11-15T01:04:50;8.73;;;7.82;;
74229;SDS011;62589;12.568;99.958;2022-11-15T01:07:16;8.80;;;7.57;;
74229;SDS011;62589;12.568;99.958;2022-11-15T01:09:43;8.88;;;7.25;;
74229;SDS011;62589;12.568;99.958;2022-11-15T01:12:10;7.85;;;7.13;;
74229;SDS011;62589;12.568;99.958;2022-11-15T01:14:36;8.20;;;7.30;;
74229;SDS011;62589;12.568;99.958;2022-11-15T01:17:03;7.93;;;7.13;;
74229;SDS011;62589;12.568;99.958;2022-11-15T01:19:30;9.25;;;6.88;;
74229;SDS011;62589;12.568;99.958;2022-11-15T01:21:56;7.82;;;7.07;;
74229;SDS011;62589;12.568;99.958;2022-11-15T01:24:23;7.50;;;6.53;;
74229;SDS011;62589;12.568;99.958;2022-11-15T01:26:50;8.40;;;6.78;;
74229;SDS011;62589;12.568;99.958;2022-11-15T01:29:16;7.00;;;6.40;;
74229;SDS011;62589;12.568;99.958;2022-11-15T01:31:43;6.32;;;5.72;;
74229;SDS011;62589;12.568;99.958;2022-11-15T01:34:09;6.72;;;6.03;;
74229;SDS011;62589;12.568;99.958;2022-11-15T01:36:36;6.53;;;5.82;;
74229;SDS011;62589;12.568;99.958;2022-11-15T01:39:03;6.63;;;5.70;;
74229;SDS011;62589;12.568;99.958;2022-11-15T01:41:31;7.65;;;6.05;;
74229;SDS011;62589;12.568;99.958;2022-11-15T01:46:48;6.65;;;5.82;;
74229;SDS011;62589;12.568;99.958;2022-11-15T01:49:16;6.88;;;5.65;;
74229;SDS011;62589;12.568;99.958;2022-11-15T01:51:45;7.10;;;5.43;;
74229;SDS011;62589;12.568;99.958;2022-11-15T01:54:13;5.78;;;4.95;;
74229;SDS011;62589;12.568;99.958;2022-11-15T01:56:45;5.65;;;4.88;;
74229;SDS011;62589;12.568;99.958;2022-11-15T01:59:18;5.90;;;5.32;;
74229;SDS011;62589;12.568;99.958;2022-11-15T02:01:46;6.38;;;5.78;;
74229;SDS011;62589;12.568;99.958;2022-11-15T02:04:15;6.22;;;5.63;;
74229;SDS011;62589;12.568;99.958;2022-11-15T02:06:44;6.25;;;5.65;;
74229;SDS011;62589;12.568;99.958;2022-11-15T02:09:14;6.55;;;5.30;;
74229;SDS011;62589;12.568;99.958;2022-11-15T02:11:40;6.90;;;6.18;;
74229;SDS011;62589;12.568;99.958;2022-11-15T02:14:09;5.82;;;5.30;;
74229;SDS011;62589;12.568;99.958;2022-11-15T02:19:40;7.43;;;6.15;;
74229;SDS011;62589;12.568;99.958;2022-11-15T02:25:30;8.57;;;6.18;;
74229;SDS011;62589;12.568;99.958;2022-11-15T02:31:04;6.78;;;6.03;;
74229;SDS011;62589;12.568;99.958;2022-11-15T02:34:04;8.15;;;6.55;;
74229;SDS011;62589;12.568;99.958;2022-11-15T02:37:02;6.10;;;5.47;;
74229;SDS011;62589;12.568;99.958;2022-11-15T02:42:32;6.82;;;6.10;;
74229;SDS011;62589;12.568;99.958;2022-11-15T02:45:17;6.38;;;5.78;;
74229;SDS011;62589;12.568;99.958;2022-11-15T02:47:48;5.93;;;5.43;;
74229;SDS011;62589;12.568;99.958;2022-11-15T02:50:19;6.88;;;6.05;;
74229;SDS011;62589;12.568;99.958;2022-11-15T02:52:49;6.75;;;6.00;;
74229;SDS011;62589;12.568;99.958;2022-11-15T02:55:30;7.30;;;5.95;;
74229;SDS011;62589;12.568;99.958;2022-11-15T03:01:01;7.07;;;6.38;;
74229;SDS011;62589;12.568;99.958;2022-11-15T03:03:57;7.63;;;6.50;;
74229;SDS011;62589;12.568;99.958;2022-11-15T03:06:47;7.15;;;6.50;;
74229;SDS011;62589;12.568;99.958;2022-11-15T03:12:23;7.60;;;6.60;;
74229;SDS011;62589;12.568;99.958;2022-11-15T03:15:06;6.70;;;6.00;;
74229;SDS011;62589;12.568;99.958;2022-11-15T03:17:47;6.80;;;6.20;;
74229;SDS011;62589;12.568;99.958;2022-11-15T03:20:19;6.90;;;6.20;;
74229;SDS011;62589;12.568;99.958;2022-11-15T03:22:46;7.53;;;6.80;;
74229;SDS011;62589;12.568;99.958;2022-11-15T03:25:19;7.50;;;6.80;;
74229;SDS011;62589;12.568;99.958;2022-11-15T03:27:50;7.38;;;6.75;;
74229;SDS011;62589;12.568;99.958;2022-11-15T03:30:21;10.00;;;6.85;;
74229;SDS011;62589;12.568;99.958;2022-11-15T03:32:51;9.40;;;7.10;;
74229;SDS011;62589;12.568;99.958;2022-11-15T03:37:59;8.88;;;7.57;;
74229;SDS011;62589;12.568;99.958;2022-11-15T03:43:36;8.10;;;7.35;;
74229;SDS011;62589;12.568;99.958;2022-11-15T03:46:20;8.32;;;6.97;;
74229;SDS011;62589;12.568;99.958;2022-11-15T03:49:11;8.95;;;7.47;;
74229;SDS011;62589;12.568;99.958;2022-11-15T03:51:48;8.55;;;7.65;;
74229;SDS011;62589;12.568;99.958;2022-11-15T03:54:15;8.93;;;8.02;;
74229;SDS011;62589;12.568;99.958;2022-11-15T03:56:42;9.63;;;8.73;;
74229;SDS011;62589;12.568;99.958;2022-11-15T03:59:08;10.55;;;9.20;;
74229;SDS011;62589;12.568;99.958;2022-11-15T04:01:35;9.98;;;8.88;;
74229;SDS011;62589;12.568;99.958;2022-11-15T04:04:02;9.88;;;8.88;;
74229;SDS011;62589;12.568;99.958;2022-11-15T04:06:28;10.00;;;8.85;;
74229;SDS011;62589;12.568;99.958;2022-11-15T04:08:55;10.98;;;9.85;;
74229;SDS011;62589;12.568;99.958;2022-11-15T04:11:22;12.77;;;9.02;;
74229;SDS011;62589;12.568;99.958;2022-11-15T04:13:48;10.45;;;8.38;;
74229;SDS011;62589;12.568;99.958;2022-11-15T04:16:15;10.23;;;9.00;;
74229;SDS011;62589;12.568;99.958;2022-11-15T04:18:42;9.43;;;8.43;;
74229;SDS011;62589;12.568;99.958;2022-11-15T04:21:08;10.23;;;8.02;;
74229;SDS011;62589;12.568;99.958;2022-11-15T04:23:47;8.60;;;7.70;;
74229;SDS011;62589;12.568;99.958;2022-11-15T04:26:25;8.32;;;7.53;;
74229;SDS011;62589;12.568;99.958;2022-11-15T04:28:52;10.20;;;8.13;;
74229;SDS011;62589;12.568;99.958;2022-11-15T04:31:30;10.50;;;7.45;;
74229;SDS011;62589;12.568;99.958;2022-11-15T04:33:57;8.55;;;7.63;;
74229;SDS011;62589;12.568;99.958;2022-11-15T04:36:24;7.57;;;6.32;;
74229;SDS011;62589;12.568;99.958;2022-11-15T04:39:03;7.82;;;7.00;;
74229;SDS011;62589;12.568;99.958;2022-11-15T04:41:30;8.15;;;7.35;;
74229;SDS011;62589;12.568;99.958;2022-11-15T04:43:56;7.60;;;6.88;;
74229;SDS011;62589;12.568;99.958;2022-11-15T04:46:23;7.82;;;7.03;;
74229;SDS011;62589;12.568;99.958;2022-11-15T04:48:51;7.65;;;6.45;;
74229;SDS011;62589;12.568;99.958;2022-11-15T04:51:18;7.20;;;6.60;;
74229;SDS011;62589;12.568;99.958;2022-11-15T04:53:46;8.75;;;6.90;;
74229;SDS011;62589;12.568;99.958;2022-11-15T04:56:13;8.32;;;7.55;;
74229;SDS011;62589;12.568;99.958;2022-11-15T04:58:40;9.77;;;7.70;;
74229;SDS011;62589;12.568;99.958;2022-11-15T05:01:11;10.13;;;7.95;;
74229;SDS011;62589;12.568;99.958;2022-11-15T05:03:40;8.90;;;8.00;;
74229;SDS011;62589;12.568;99.958;2022-11-15T05:06:19;8.35;;;7.35;;
74229;SDS011;62589;12.568;99.958;2022-11-15T05:08:46;8.30;;;7.15;;
74229;SDS011;62589;12.568;99.958;2022-11-15T05:11:13;8.65;;;7.75;;
74229;SDS011;62589;12.568;99.958;2022-11-15T05:13:39;9.30;;;8.25;;
74229;SDS011;62589;12.568;99.958;2022-11-15T05:16:06;8.20;;;7.40;;
74229;SDS011;62589;12.568;99.958;2022-11-15T05:18:33;7.50;;;6.80;;
74229;SDS011;62589;12.568;99.958;2022-11-15T05:21:10;8.48;;;7.25;;
74229;SDS011;62589;12.568;99.958;2022-11-15T05:23:38;8.45;;;7.60;;
74229;SDS011;62589;12.568;99.958;2022-11-15T05:26:06;9.10;;;8.20;;
74229;SDS011;62589;12.568;99.958;2022-11-15T05:28:34;9.55;;;8.52;;
74229;SDS011;62589;12.568;99.958;2022-11-15T05:31:02;10.80;;;8.07;;
74229;SDS011;62589;12.568;99.958;2022-11-15T05:33:30;9.38;;;8.40;;
74229;SDS011;62589;12.568;99.958;2022-11-15T05:36:06;8.75;;;7.85;;
74229;SDS011;62589;12.568;99.958;2022-11-15T05:38:45;10.40;;;8.05;;
74229;SDS011;62589;12.568;99.958;2022-11-15T05:41:12;8.57;;;7.78;;
74229;SDS011;62589;12.568;99.958;2022-11-15T05:43:40;9.77;;;8.25;;
74229;SDS011;62589;12.568;99.958;2022-11-15T05:46:09;10.73;;;7.80;;
74229;SDS011;62589;12.568;99.958;2022-11-15T05:48:36;7.65;;;6.95;;
74229;SDS011;62589;12.568;99.958;2022-11-15T05:51:06;8.27;;;7.47;;
74229;SDS011;62589;12.568;99.958;2022-11-15T05:53:33;7.80;;;7.05;;
74229;SDS011;62589;12.568;99.958;2022-11-15T05:56:02;8.50;;;7.60;;
74229;SDS011;62589;12.568;99.958;2022-11-15T05:58:31;7.85;;;6.97;;
74229;SDS011;62589;12.568;99.958;2022-11-15T06:00:59;8.77;;;7.72;;
74229;SDS011;62589;12.568;99.958;2022-11-15T06:03:26;8.30;;;7.50;;
74229;SDS011;62589;12.568;99.958;2022-11-15T06:05:53;8.48;;;7.68;;
74229;SDS011;62589;12.568;99.958;2022-11-15T06:08:20;8.85;;;7.80;;
74229;SDS011;62589;12.568;99.958;2022-11-15T06:10:47;14.15;;;10.48;;
74229;SDS011;62589;12.568;99.958;2022-11-15T06:13:13;9.10;;;7.85;;
74229;SDS011;62589;12.568;99.958;2022-11-15T06:15:40;8.77;;;7.57;;
74229;SDS011;62589;12.568;99.958;2022-11-15T06:18:07;8.50;;;7.20;;
74229;SDS011;62589;12.568;99.958;2022-11-15T06:20:33;8.63;;;7.07;;
74229;SDS011;62589;12.568;99.958;2022-11-15T06:23:01;7.97;;;6.82;;
74229;SDS011;62589;12.568;99.958;2022-11-15T06:25:29;7.78;;;7.07;;
74229;SDS011;62589;12.568;99.958;2022-11-15T06:27:57;8.50;;;7.00;;
74229;SDS011;62589;12.568;99.958;2022-11-15T06:30:25;7.90;;;7.10;;
74229;SDS011;62589;12.568;99.958;2022-11-15T06:32:58;8.82;;;6.85;;
74229;SDS011;62589;12.568;99.958;2022-11-15T06:35:27;9.77;;;7.80;;
74229;SDS011;62589;12.568;99.958;2022-11-15T06:37:54;8.95;;;7.72;;
74229;SDS011;62589;12.568;99.958;2022-11-15T06:40:22;9.88;;;7.50;;
74229;SDS011;62589;12.568;99.958;2022-11-15T06:42:48;9.18;;;8.05;;
74229;SDS011;62589;12.568;99.958;2022-11-15T06:45:15;12.73;;;7.75;;
74229;SDS011;62589;12.568;99.958;2022-11-15T06:47:45;8.07;;;7.30;;
74229;SDS011;62589;12.568;99.958;2022-11-15T06:50:12;8.57;;;7.10;;
74229;SDS011;62589;12.568;99.958;2022-11-15T06:52:39;8.70;;;7.57;;
74229;SDS011;62589;12.568;99.958;2022-11-15T06:55:06;9.32;;;7.72;;
74229;SDS011;62589;12.568;99.958;2022-11-15T06:57:33;7.95;;;7.15;;
74229;SDS011;62589;12.568;99.958;2022-11-15T07:00:01;11.10;;;10.00;;
74229;SDS011;62589;12.568;99.958;2022-11-15T07:02:31;10.40;;;8.52;;
74229;SDS011;62589;12.568;99.958;2022-11-15T07:04:58;10.32;;;7.35;;
74229;SDS011;62589;12.568;99.958;2022-11-15T07:07:24;8.48;;;7.25;;
74229;SDS011;62589;12.568;99.958;2022-11-15T07:09:51;7.72;;;6.93;;
74229;SDS011;62589;12.568;99.958;2022-11-15T07:12:18;8.27;;;7.00;;
74229;SDS011;62589;12.568;99.958;2022-11-15T07:14:44;8.95;;;7.15;;
74229;SDS011;62589;12.568;99.958;2022-11-15T07:17:11;7.38;;;6.55;;
74229;SDS011;62589;12.568;99.958;2022-11-15T07:19:38;7.43;;;6.72;;
74229;SDS011;62589;12.568;99.958;2022-11-15T07:22:05;7.43;;;6.65;;
74229;SDS011;62589;12.568;99.958;2022-11-15T07:24:31;10.65;;;6.82;;
74229;SDS011;62589;12.568;99.958;2022-11-15T07:26:58;8.75;;;6.40;;
74229;SDS011;62589;12.568;99.958;2022-11-15T07:29:24;6.60;;;6.00;;
74229;SDS011;62589;12.568;99.958;2022-11-15T07:31:51;6.53;;;5.78;;
74229;SDS011;62589;12.568;99.958;2022-11-15T07:34:18;7.30;;;6.25;;
74229;SDS011;62589;12.568;99.958;2022-11-15T07:36:45;5.97;;;5.47;;
74229;SDS011;62589;12.568;99.958;2022-11-15T07:39:11;6.05;;;5.45;;
74229;SDS011;62589;12.568;99.958;2022-11-15T07:41:39;7.57;;;5.75;;
74229;SDS011;62589;12.568;99.958;2022-11-15T07:44:06;11.13;;;7.63;;
74229;SDS011;62589;12.568;99.958;2022-11-15T07:46:32;8.02;;;7.05;;
74229;SDS011;62589;12.568;99.958;2022-11-15T07:48:59;6.65;;;5.72;;
74229;SDS011;62589;12.568;99.958;2022-11-15T07:51:26;6.18;;;5.40;;
74229;SDS011;62589;12.568;99.958;2022-11-15T07:53:53;6.15;;;5.55;;
74229;SDS011;62589;12.568;99.958;2022-11-15T07:56:19;6.85;;;5.22;;
74229;SDS011;62589;12.568;99.958;2022-11-15T07:58:46;6.05;;;5.43;;
74229;SDS011;62589;12.568;99.958;2022-11-15T08:01:13;5.65;;;5.15;;
74229;SDS011;62589;12.568;99.958;2022-11-15T08:03:40;6.47;;;4.88;;
74229;SDS011;62589;12.568;99.958;2022-11-15T08:06:06;5.95;;;5.30;;
74229;SDS011;62589;12.568;99.958;2022-11-15T08:08:33;5.93;;;5.32;;
74229;SDS011;62589;12.568;99.958;2022-11-15T08:11:00;7.20;;;5.68;;
74229;SDS011;62589;12.568;99.958;2022-11-15T08:13:27;5.97;;;5.38;;
74229;SDS011;62589;12.568;99.958;2022-11-15T08:15:57;6.15;;;5.30;;
74229;SDS011;62589;12.568;99.958;2022-11-15T08:18:24;6.45;;;5.82;;
74229;SDS011;62589;12.568;99.958;2022-11-15T08:20:51;6.38;;;5.80;;
74229;SDS011;62589;12.568;99.958;2022-11-15T08:23:18;9.05;;;6.70;;
74229;SDS011;62589;12.568;99.958;2022-11-15T08:25:45;8.60;;;6.60;;
74229;SDS011;62589;12.568;99.958;2022-11-15T08:28:11;6.95;;;6.30;;
74229;SDS011;62589;12.568;99.958;2022-11-15T08:30:39;6.75;;;6.15;;
74229;SDS011;62589;12.568;99.958;2022-11-15T08:33:10;6.85;;;6.25;;
74229;SDS011;62589;12.568;99.958;2022-11-15T08:35:38;7.75;;;6.28;;
74229;SDS011;62589;12.568;99.958;2022-11-15T08:38:06;8.82;;;7.40;;
74229;SDS011;62589;12.568;99.958;2022-11-15T08:40:33;9.25;;;7.10;;
74229;SDS011;62589;12.568;99.958;2022-11-15T08:42:59;7.60;;;6.85;;
74229;SDS011;62589;12.568;99.958;2022-11-15T08:45:28;9.60;;;7.63;;
74229;SDS011;62589;12.568;99.958;2022-11-15T08:47:55;7.50;;;6.75;;
74229;SDS011;62589;12.568;99.958;2022-11-15T08:50:22;8.63;;;7.63;;
74229;SDS011;62589;12.568;99.958;2022-11-15T08:52:49;7.47;;;6.78;;
74229;SDS011;62589;12.568;99.958;2022-11-15T08:55:15;6.95;;;6.32;;
74229;SDS011;62589;12.568;99.958;2022-11-15T08:57:42;7.95;;;6.45;;
74229;SDS011;62589;12.568;99.958;2022-11-15T09:00:09;8.88;;;6.78;;
74229;SDS011;62589;12.568;99.958;2022-11-15T09:02:38;7.05;;;6.20;;
74229;SDS011;62589;12.568;99.958;2022-11-15T09:05:05;7.20;;;6.50;;
74229;SDS011;62589;12.568;99.958;2022-11-15T09:07:32;8.50;;;7.00;;
74229;SDS011;62589;12.568;99.958;2022-11-15T09:10:00;8.52;;;7.72;;
74229;SDS011;62589;12.568;99.958;2022-11-15T09:12:27;8.23;;;7.43;;
74229;SDS011;62589;12.568;99.958;2022-11-15T09:14:53;8.02;;;6.55;;
74229;SDS011;62589;12.568;99.958;2022-11-15T09:17:20;7.25;;;6.55;;
74229;SDS011;62589;12.568;99.958;2022-11-15T09:19:46;9.52;;;7.07;;
74229;SDS011;62589;12.568;99.958;2022-11-15T09:22:12;7.40;;;6.70;;
74229;SDS011;62589;12.568;99.958;2022-11-15T09:24:38;7.80;;;7.05;;
74229;SDS011;62589;12.568;99.958;2022-11-15T09:27:05;8.13;;;7.13;;
74229;SDS011;62589;12.568;99.958;2022-11-15T09:29:31;8.32;;;7.53;;
74229;SDS011;62589;12.568;99.958;2022-11-15T09:31:58;7.60;;;6.90;;
74229;SDS011;62589;12.568;99.958;2022-11-15T09:34:24;7.65;;;6.95;;
74229;SDS011;62589;12.568;99.958;2022-11-15T09:36:51;7.65;;;6.60;;
74229;SDS011;62589;12.568;99.958;2022-11-15T09:39:17;7.80;;;7.00;;
74229;SDS011;62589;12.568;99.958;2022-11-15T09:44:56;7.93;;;7.13;;
74229;SDS011;62589;12.568;99.958;2022-11-15T09:47:38;8.73;;;6.25;;
74229;SDS011;62589;12.568;99.958;2022-11-15T09:50:34;7.18;;;6.53;;
74229;SDS011;62589;12.568;99.958;2022-11-15T09:53:09;7.53;;;6.63;;
74229;SDS011;62589;12.568;99.958;2022-11-15T09:58:33;6.90;;;6.28;;
74229;SDS011;62589;12.568;99.958;2022-11-15T10:01:08;7.22;;;6.53;;
74229;SDS011;62589;12.568;99.958;2022-11-15T10:03:43;6.72;;;6.03;;
74229;SDS011;62589;12.568;99.958;2022-11-15T10:08:53;7.82;;;6.95;;
74229;SDS011;62589;12.568;99.958;2022-11-15T10:11:28;6.93;;;6.25;;
74229;SDS011;62589;12.568;99.958;2022-11-15T10:14:01;7.15;;;6.50;;
74229;SDS011;62589;12.568;99.958;2022-11-15T10:16:47;7.75;;;6.95;;
74229;SDS011;62589;12.568;99.958;2022-11-15T10:22:24;8.00;;;6.68;;
74229;SDS011;62589;12.568;99.958;2022-11-15T10:27:43;7.75;;;6.65;;
74229;SDS011;62589;12.568;99.958;2022-11-15T10:30:15;8.40;;;7.60;;
74229;SDS011;62589;12.568;99.958;2022-11-15T10:32:44;7.95;;;7.15;;
74229;SDS011;62589;12.568;99.958;2022-11-15T10:35:23;7.65;;;6.85;;
74229;SDS011;62589;12.568;99.958;2022-11-15T10:37:52;7.55;;;6.90;;
74229;SDS011;62589;12.568;99.958;2022-11-15T10:40:34;8.27;;;7.47;;
74229;SDS011;62589;12.568;99.958;2022-11-15T10:43:13;7.82;;;7.10;;
74229;SDS011;62589;12.568;99.958;2022-11-15T10:45:43;9.63;;;6.65;;
74229;SDS011;62589;12.568;99.958;2022-11-15T10:50:55;7.70;;;6.90;;
74229;SDS011;62589;12.568;99.958;2022-11-15T10:53:29;8.02;;;7.25;;
74229;SDS011;62589;12.568;99.958;2022-11-15T10:56:04;7.13;;;6.50;;
74229;SDS011;62589;12.568;99.958;2022-11-15T10:58:44;9.10;;;7.28;;
74229;SDS011;62589;12.568;99.958;2022-11-15T11:01:17;7.70;;;6.90;;
74229;SDS011;62589;12.568;99.958;2022-11-15T11:06:27;9.10;;;7.20;;
74229;SDS011;62589;12.568;99.958;2022-11-15T11:09:00;10.25;;;7.70;;
74229;SDS011;62589;12.568;99.958;2022-11-15T11:14:28;8.98;;;7.70;;
74229;SDS011;62589;12.568;99.958;2022-11-15T11:23:01;8.05;;;7.25;;
74229;SDS011;62589;12.568;99.958;2022-11-15T11:31:42;8.75;;;7.95;;
74229;SDS011;62589;12.568;99.958;2022-11-15T11:34:50;9.57;;;7.78;;
74229;SDS011;62589;12.568;99.958;2022-11-15T11:46:14;9.48;;;8.32;;
74229;SDS011;62589;12.568;99.958;2022-11-15T11:49:09;9.13;;;8.23;;
74229;SDS011;62589;12.568;99.958;2022-11-15T11:51:42;10.15;;;9.15;;
74229;SDS011;62589;12.568;99.958;2022-11-15T11:54:34;10.85;;;9.75;;
74229;SDS011;62589;12.568;99.958;2022-11-15T11:57:07;10.77;;;9.68;;
74229;SDS011;62589;12.568;99.958;2022-11-15T11:59:54;10.75;;;9.65;;
74229;SDS011;62589;12.568;99.958;2022-11-15T12:05:10;9.98;;;8.98;;
74229;SDS011;62589;12.568;99.958;2022-11-15T12:13:49;9.27;;;8.23;;
74229;SDS011;62589;12.568;99.958;2022-11-15T12:16:31;11.45;;;8.48;;
74229;SDS011;62589;12.568;99.958;2022-11-15T12:19:00;11.55;;;8.90;;
74229;SDS011;62589;12.568;99.958;2022-11-15T12:21:42;8.85;;;8.02;;
74229;SDS011;62589;12.568;99.958;2022-11-15T12:24:18;10.13;;;8.57;;
74229;SDS011;62589;12.568;99.958;2022-11-15T12:27:03;9.90;;;8.20;;
74229;SDS011;62589;12.568;99.958;2022-11-15T12:29:41;9.30;;;8.50;;
74229;SDS011;62589;12.568;99.958;2022-11-15T12:32:21;9.48;;;8.20;;
74229;SDS011;62589;12.568;99.958;2022-11-15T12:34:54;9.05;;;8.15;;
74229;SDS011;62589;12.568;99.958;2022-11-15T12:40:25;11.82;;;8.15;;
74229;SDS011;62589;12.568;99.958;2022-11-15T12:42:59;8.45;;;7.60;;
74229;SDS011;62589;12.568;99.958;2022-11-15T12:45:42;8.63;;;7.82;;
74229;SDS011;62589;12.568;99.958;2022-11-15T12:48:44;9.40;;;8.50;;
74229;SDS011;62589;12.568;99.958;2022-11-15T12:51:16;9.93;;;8.48;;
74229;SDS011;62589;12.568;99.958;2022-11-15T12:53:46;9.95;;;8.52;;
74229;SDS011;62589;12.568;99.958;2022-11-15T12:58:58;8.95;;;8.15;;
74229;SDS011;62589;12.568;99.958;2022-11-15T13:04:22;8.32;;;7.53;;
74229;SDS011;62589;12.568;99.958;2022-11-15T13:07:01;10.10;;;8.40;;
74229;SDS011;62589;12.568;99.958;2022-11-15T13:12:48;9.38;;;8.43;;
74229;SDS011;62589;12.568;99.958;2022-11-15T13:15:33;10.25;;;7.82;;
74229;SDS011;62589;12.568;99.958;2022-11-15T13:20:56;11.48;;;8.35;;
74229;SDS011;62589;12.568;99.958;2022-11-15T13:23:23;9.57;;;8.50;;
74229;SDS011;62589;12.568;99.958;2022-11-15T13:26:00;10.43;;;9.40;;
74229;SDS011;62589;12.568;99.958;2022-11-15T13:28:44;11.52;;;8.95;;
74229;SDS011;62589;12.568;99.958;2022-11-15T13:36:58;9.65;;;8.65;;
74229;SDS011;62589;12.568;99.958;2022-11-15T13:39:27;9.48;;;8.30;;
74229;SDS011;62589;12.568;99.958;2022-11-15T13:41:59;9.57;;;8.32;;
74229;SDS011;62589;12.568;99.958;2022-11-15T13:44:28;9.88;;;8.88;;
74229;SDS011;62589;12.568;99.958;2022-11-15T13:49:45;9.15;;;8.25;;
74229;SDS011;62589;12.568;99.958;2022-11-15T13:52:14;11.00;;;7.80;;
74229;SDS011;62589;12.568;99.958;2022-11-15T13:57:30;10.95;;;7.18;;
74229;SDS011;62589;12.568;99.958;2022-11-15T14:00:05;7.63;;;6.93;;
74229;SDS011;62589;12.568;99.958;2022-11-15T14:02:50;9.57;;;6.55;;
74229;SDS011;62589;12.568;99.958;2022-11-15T14:05:18;8.55;;;6.65;;
74229;SDS011;62589;12.568;99.958;2022-11-15T14:07:57;7.30;;;6.40;;
74229;SDS011;62589;12.568;99.958;2022-11-15T14:10:43;6.93;;;6.15;;
74229;SDS011;62589;12.568;99.958;2022-11-15T14:13:25;8.07;;;6.15;;
74229;SDS011;62589;12.568;99.958;2022-11-15T14:15:53;6.75;;;6.03;;
74229;SDS011;62589;12.568;99.958;2022-11-15T14:21:07;6.00;;;5.40;;
74229;SDS011;62589;12.568;99.958;2022-11-15T14:23:34;6.85;;;5.45;;
74229;SDS011;62589;12.568;99.958;2022-11-15T14:26:01;7.28;;;5.63;;
74229;SDS011;62589;12.568;99.958;2022-11-15T14:28:30;6.47;;;5.88;;
74229;SDS011;62589;12.568;99.958;2022-11-15T14:30:59;7.95;;;5.82;;
74229;SDS011;62589;12.568;99.958;2022-11-15T14:33:33;8.05;;;7.13;;
74229;SDS011;62589;12.568;99.958;2022-11-15T14:36:14;7.55;;;6.75;;
74229;SDS011;62589;12.568;99.958;2022-11-15T14:38:42;9.85;;;7.05;;
74229;SDS011;62589;12.568;99.958;2022-11-15T14:41:22;7.25;;;6.53;;
74229;SDS011;62589;12.568;99.958;2022-11-15T14:43:50;8.95;;;6.93;;
74229;SDS011;62589;12.568;99.958;2022-11-15T14:46:17;8.63;;;6.90;;
74229;SDS011;62589;12.568;99.958;2022-11-15T14:48:45;7.88;;;7.07;;
74229;SDS011;62589;12.568;99.958;2022-11-15T14:51:18;10.15;;;7.20;;
74229;SDS011;62589;12.568;99.958;2022-11-15T14:53:45;9.40;;;7.18;;
74229;SDS011;62589;12.568;99.958;2022-11-15T14:56:13;11.45;;;7.05;;
74229;SDS011;62589;12.568;99.958;2022-11-15T14:58:40;7.40;;;6.70;;
74229;SDS011;62589;12.568;99.958;2022-11-15T15:01:20;7.32;;;6.63;;
74229;SDS011;62589;12.568;99.958;2022-11-15T15:03:50;7.80;;;6.55;;
74229;SDS011;62589;12.568;99.958;2022-11-15T15:06:18;8.80;;;6.38;;
74229;SDS011;62589;12.568;99.958;2022-11-15T15:08:45;6.50;;;5.90;;
74229;SDS011;62589;12.568;99.958;2022-11-15T15:11:16;8.00;;;6.63;;
74229;SDS011;62589;12.568;99.958;2022-11-15T15:13:48;11.05;;;7.30;;
74229;SDS011;62589;12.568;99.958;2022-11-15T15:16:15;11.95;;;7.45;;
74229;SDS011;62589;12.568;99.958;2022-11-15T15:18:41;10.98;;;7.10;;
74229;SDS011;62589;12.568;99.958;2022-11-15T15:21:17;9.50;;;6.97;;
74229;SDS011;62589;12.568;99.958;2022-11-15T15:23:48;10.85;;;7.15;;
74229;SDS011;62589;12.568;99.958;2022-11-15T15:26:15;8.98;;;7.32;;
74229;SDS011;62589;12.568;99.958;2022-11-15T15:28:42;8.18;;;7.28;;
74229;SDS011;62589;12.568;99.958;2022-11-15T15:31:09;10.60;;;7.95;;
74229;SDS011;62589;12.568;99.958;2022-11-15T15:33:36;11.88;;;8.18;;
74229;SDS011;62589;12.568;99.958;2022-11-15T15:36:03;9.32;;;7.82;;
74229;SDS011;62589;12.568;99.958;2022-11-15T15:38:29;8.15;;;7.15;;
74229;SDS011;62589;12.568;99.958;2022-11-15T15:40:56;8.15;;;6.75;;
74229;SDS011;62589;12.568;99.958;2022-11-15T15:43:24;9.73;;;5.88;;
74229;SDS011;62589;12.568;99.958;2022-11-15T15:45:51;7.53;;;6.35;;
74229;SDS011;62589;12.568;99.958;2022-11-15T15:48:17;6.28;;;5.68;;
74229;SDS011;62589;12.568;99.958;2022-11-15T15:50:46;10.05;;;6.03;;
74229;SDS011;62589;12.568;99.958;2022-11-15T15:53:14;8.23;;;6.03;;
74229;SDS011;62589;12.568;99.958;2022-11-15T15:55:40;6.50;;;5.90;;
74229;SDS011;62589;12.568;99.958;2022-11-15T15:58:07;8.15;;;7.28;;
74229;SDS011;62589;12.568;99.958;2022-11-15T16:00:34;12.63;;;8.15;;
74229;SDS011;62589;12.568;99.958;2022-11-15T16:03:02;11.82;;;8.88;;
74229;SDS011;62589;12.568;99.958;2022-11-15T16:05:29;10.63;;;9.50;;
74229;SDS011;62589;12.568;99.958;2022-11-15T16:07:55;13.10;;;9.35;;
74229;SDS011;62589;12.568;99.958;2022-11-15T16:10:29;12.18;;;9.43;;
74229;SDS011;62589;12.568;99.958;2022-11-15T16:12:57;11.82;;;9.07;;
74229;SDS011;62589;12.568;99.958;2022-11-15T16:15:24;12.05;;;9.43;;
74229;SDS011;62589;12.568;99.958;2022-11-15T16:17:58;13.15;;;9.02;;
74229;SDS011;62589;12.568;99.958;2022-11-15T16:20:29;13.55;;;9.70;;
74229;SDS011;62589;12.568;99.958;2022-11-15T16:23:08;11.65;;;9.65;;
74229;SDS011;62589;12.568;99.958;2022-11-15T16:31:13;12.10;;;9.18;;
74229;SDS011;62589;12.568;99.958;2022-11-15T16:33:42;10.27;;;8.35;;
74229;SDS011;62589;12.568;99.958;2022-11-15T16:38:48;11.30;;;8.10;;
74229;SDS011;62589;12.568;99.958;2022-11-15T16:41:15;11.20;;;8.13;;
74229;SDS011;62589;12.568;99.958;2022-11-15T16:43:49;8.57;;;7.65;;
74229;SDS011;62589;12.568;99.958;2022-11-15T16:46:23;12.65;;;7.78;;